Time;durP1;ratioP1;P1;durP2;ratioP2;P2;SDS_P1;SDS_P2;PMS_P1;PMS_P2;Temp;Humidity;BMP_temperature;BMP_pressure;BME280_temperature;BME280_humidity;BME280_pressure;Samples;Min_cycle;Max_cycle;Signal;HPM_P1;HPM_P2
2023/10/12 00:02:04;;;;;;;5.57;3.45;;;19.30;78.50;;;;;;5049653;28;20033;-63
2023/10/12 00:04:43;;;;;;;10.32;4.20;;;19.30;79.00;;;;;;5063357;28;20403;-65
2023/10/12 00:07:15;;;;;;;7.55;3.17;;;19.30;79.30;;;;;;5038264;28;20029;-65
2023/10/12 00:10:19;;;;;;;10.60;4.18;;;19.20;79.30;;;;;;5050925;28;20669;-63
2023/10/12 00:12:39;;;;;;;7.38;3.20;;;19.30;79.50;;;;;;5067340;28;20029;-63
2023/10/12 00:15:23;;;;;;;5.82;3.17;;;19.30;79.60;;;;;;5062024;28;20025;-65
2023/10/12 00:18:10;;;;;;;3.95;2.35;;;19.20;79.60;;;;;;5067156;28;20013;-63
2023/10/12 00:20:39;;;;;;;4.10;3.13;;;19.30;79.70;;;;;;5067331;28;20119;-63
2023/10/12 00:23:14;;;;;;;5.43;3.08;;;19.20;80.00;;;;;;5067068;28;20025;-63
2023/10/12 00:25:47;;;;;;;4.90;3.17;;;19.20;80.40;;;;;;5067719;28;20032;-63
2023/10/12 00:28:17;;;;;;;6.13;3.40;;;19.20;80.60;;;;;;5064595;28;20029;-63
2023/10/12 00:30:47;;;;;;;5.63;3.65;;;19.20;80.70;;;;;;5070421;28;20035;-63
2023/10/12 00:33:13;;;;;;;5.05;2.90;;;19.20;80.90;;;;;;5068409;28;20479;-63
2023/10/12 00:35:39;;;;;;;4.43;2.80;;;19.20;80.80;;;;;;5071951;28;20016;-65
2023/10/12 00:38:18;;;;;;;7.82;4.07;;;19.20;80.80;;;;;;5066271;28;20032;-63
2023/10/12 00:41:04;;;;;;;7.05;3.65;;;19.20;81.10;;;;;;5067541;28;20028;-63
2023/10/12 00:43:40;;;;;;;5.97;3.22;;;19.20;81.20;;;;;;5069847;28;20051;-65
2023/10/12 00:49:40;;;;;;;9.30;4.32;;;19.10;82.20;;;;;;5070450;28;20090;-65
2023/10/12 00:51:37;;;;;;;8.20;4.05;;;19.10;81.70;;;;;;5054280;28;20459;-65
2023/10/12 00:54:04;;;;;;;10.90;4.50;;;19.00;81.80;;;;;;5070420;28;20020;-63
2023/10/12 00:56:30;;;;;;;7.47;4.45;;;19.00;82.30;;;;;;5066109;28;20056;-62
2023/10/12 00:58:57;;;;;;;6.85;4.03;;;19.00;82.60;;;;;;5069941;28;20051;-62
2023/10/12 01:01:23;;;;;;;7.43;4.35;;;19.00;82.60;;;;;;5071088;28;20035;-62
2023/10/12 01:03:50;;;;;;;5.57;4.13;;;19.00;82.90;;;;;;5050501;28;20117;-62
2023/10/12 01:06:28;;;;;;;8.77;3.80;;;19.00;82.90;;;;;;5069266;28;20123;-62
2023/10/12 01:08:59;;;;;;;5.25;4.18;;;19.00;82.90;;;;;;5061941;28;20025;-65
2023/10/12 01:11:26;;;;;;;7.60;3.67;;;19.00;82.90;;;;;;5070347;28;20685;-64
2023/10/12 01:16:29;;;;;;;8.20;4.53;;;19.00;83.30;;;;;;5065670;28;20029;-64
2023/10/12 01:19:05;;;;;;;11.15;4.70;;;18.90;83.30;;;;;;5069577;28;20119;-65
2023/10/12 01:21:35;;;;;;;6.90;4.93;;;18.90;83.80;;;;;;5060525;28;20033;-62
2023/10/12 01:24:05;;;;;;;11.77;4.88;;;18.90;83.80;;;;;;5064825;28;20062;-62
2023/10/12 01:26:33;;;;;;;5.75;3.72;;;18.90;84.00;;;;;;5066575;28;20025;-62
2023/10/12 01:29:00;;;;;;;5.32;3.40;;;18.90;84.30;;;;;;5061358;28;20020;-62
2023/10/12 01:31:29;;;;;;;7.05;3.17;;;18.90;84.20;;;;;;5063153;28;20044;-62
2023/10/12 01:33:59;;;;;;;7.65;4.68;;;18.90;84.10;;;;;;5064318;28;20549;-62
2023/10/12 01:36:30;;;;;;;8.63;4.55;;;19.00;84.50;;;;;;5067158;28;20522;-62
2023/10/12 01:39:12;;;;;;;8.82;5.10;;;18.90;84.50;;;;;;5067594;28;20399;-62
2023/10/12 01:41:40;;;;;;;;;;;18.90;84.80;;;;;;5066313;28;20068;-62
2023/10/12 01:44:10;;;;;;;8.30;5.13;;;18.90;85.50;;;;;;5067908;28;19912;-62
2023/10/12 01:46:39;;;;;;;7.32;5.15;;;18.80;85.50;;;;;;5067487;28;20029;-62
2023/10/12 01:49:08;;;;;;;10.23;5.85;;;18.70;85.70;;;;;;5059125;28;20041;-62
2023/10/12 01:51:41;;;;;;;7.68;4.80;;;18.70;86.50;;;;;;5066379;28;20194;-62
2023/10/12 01:54:11;;;;;;;10.02;5.55;;;18.70;86.60;;;;;;5067684;28;20043;-62
2023/10/12 01:56:40;;;;;;;8.20;4.63;;;18.60;86.70;;;;;;5068349;28;20156;-62
2023/10/12 01:59:06;;;;;;;8.90;5.03;;;18.60;86.80;;;;;;5064408;28;20387;-62
2023/10/12 02:01:33;;;;;;;8.02;4.75;;;18.60;87.20;;;;;;5064181;28;20115;-62
2023/10/12 02:04:02;;;;;;;10.55;4.75;;;18.60;87.00;;;;;;5059237;28;20060;-62
2023/10/12 02:06:30;;;;;;;12.35;5.82;;;18.60;87.10;;;;;;5063289;28;20032;-62
2023/10/12 02:09:02;;;;;;;8.80;4.80;;;18.60;87.40;;;;;;5057645;28;20027;-62
2023/10/12 02:11:37;;;;;;;5.70;3.85;;;18.60;87.40;;;;;;5062876;28;20029;-63
2023/10/12 02:14:04;;;;;;;6.07;4.15;;;18.60;87.30;;;;;;5062283;28;20017;-62
2023/10/12 02:16:33;;;;;;;7.30;3.78;;;18.60;87.20;;;;;;5063175;28;20471;-62
2023/10/12 02:19:00;;;;;;;6.15;3.75;;;18.60;87.00;;;;;;5066339;28;20028;-63
2023/10/12 02:21:26;;;;;;;4.15;3.00;;;18.60;86.90;;;;;;5068042;28;20032;-62
2023/10/12 02:26:38;;;;;;;5.63;3.08;;;18.70;86.70;;;;;;5068998;28;20113;-62
2023/10/12 02:31:34;;;;;;;3.20;2.40;;;18.60;86.50;;;;;;5066731;28;20112;-62
2023/10/12 02:34:02;;;;;;;5.95;2.72;;;18.60;86.50;;;;;;5061749;28;20033;-62
2023/10/12 02:36:28;;;;;;;6.75;2.85;;;18.70;86.40;;;;;;5065574;28;20364;-64
2023/10/12 02:39:10;;;;;;;5.53;2.85;;;18.70;86.30;;;;;;5068285;28;20048;-62
2023/10/12 02:41:45;;;;;;;4.32;2.92;;;18.70;86.20;;;;;;5068325;28;20162;-62
2023/10/12 02:44:19;;;;;;;4.55;2.92;;;18.60;86.10;;;;;;5068213;28;20036;-62
2023/10/12 02:47:30;;;;;;;4.18;2.83;;;18.60;86.00;;;;;;5066753;28;20025;-62
2023/10/12 02:49:40;;;;;;;4.15;3.30;;;18.70;86.00;;;;;;5060204;28;20032;-62
2023/10/12 02:52:08;;;;;;;4.68;2.97;;;18.70;85.80;;;;;;5049843;28;20033;-62
2023/10/12 02:55:08;;;;;;;7.65;2.03;;;18.60;85.70;;;;;;5065725;28;20028;-62
2023/10/12 02:57:27;;;;;;;;;;;18.60;85.70;;;;;;5050956;28;20040;-63
2023/10/12 03:00:07;;;;;;;3.17;2.42;;;18.60;85.90;;;;;;5067130;28;19912;-63
2023/10/12 03:02:33;;;;;;;5.45;2.00;;;18.50;86.00;;;;;;5068461;28;20398;-64
2023/10/12 03:05:08;;;;;;;4.82;2.38;;;18.40;85.90;;;;;;5065253;28;20115;-65
2023/10/12 03:07:40;;;;;;;6.40;1.92;;;18.40;85.90;;;;;;5066374;28;20044;-64
2023/10/12 03:10:15;;;;;;;5.60;3.35;;;18.40;85.90;;;;;;5065633;28;20025;-64
2023/10/12 03:12:43;;;;;;;3.50;2.15;;;18.40;85.80;;;;;;5066596;28;20029;-64
2023/10/12 03:15:13;;;;;;;5.80;2.55;;;18.40;85.70;;;;;;5067486;28;20028;-64
2023/10/12 03:17:52;;;;;;;3.47;2.15;;;18.40;85.70;;;;;;5069097;28;20028;-64
2023/10/12 03:20:28;;;;;;;6.57;2.22;;;18.40;85.50;;;;;;5062519;28;20025;-65
2023/10/12 03:22:59;;;;;;;15.50;2.40;;;18.40;86.00;;;;;;5042431;28;20056;-64
2023/10/12 03:25:43;;;;;;;6.15;3.33;;;18.50;85.40;;;;;;5068127;28;20098;-64
2023/10/12 03:28:13;;;;;;;3.30;2.00;;;18.40;85.30;;;;;;5046901;28;20093;-65
2023/10/12 03:30:53;;;;;;;2.83;1.73;;;18.50;85.30;;;;;;5068179;28;20025;-64
2023/10/12 03:33:19;;;;;;;1.77;1.50;;;18.50;85.20;;;;;;5059225;28;20025;-62
2023/10/12 03:35:57;;;;;;;3.92;2.45;;;18.50;85.00;;;;;;5062072;28;20475;-62
2023/10/12 03:38:25;;;;;;;3.95;1.73;;;18.50;84.90;;;;;;5046227;28;20056;-62
2023/10/12 03:41:45;;;;;;;2.00;1.85;;;18.60;84.90;;;;;;5065361;28;20476;-62
2023/10/12 03:43:40;;;;;;;2.80;1.50;;;18.60;84.90;;;;;;5066093;28;20162;-62
2023/10/12 03:48:56;;;;;;;3.67;1.75;;;18.60;84.80;;;;;;5061858;28;20032;-62
2023/10/12 03:51:26;;;;;;;2.50;1.48;;;18.60;84.90;;;;;;5045839;28;20094;-62
2023/10/12 03:54:04;;;;;;;3.72;1.35;;;18.60;84.90;;;;;;5056387;28;20029;-62
2023/10/12 03:56:38;;;;;;;2.30;1.35;;;18.60;84.80;;;;;;5043124;28;20469;-62
2023/10/12 03:59:07;;;;;;;3.80;1.55;;;18.60;84.90;;;;;;5064136;28;20036;-62
2023/10/12 04:01:39;;;;;;;1.65;1.23;;;18.60;84.90;;;;;;5062406;28;20498;-62
2023/10/12 04:04:28;;;;;;;3.38;1.42;;;18.60;84.90;;;;;;5064157;28;20055;-62
2023/10/12 04:09:42;;;;;;;2.92;2.10;;;18.70;84.80;;;;;;5070513;28;20033;-62
2023/10/12 04:14:59;;;;;;;1.60;1.15;;;18.70;85.00;;;;;;5045642;28;20033;-64
2023/10/12 04:25:24;;;;;;;2.88;1.77;;;18.70;84.80;;;;;;5071538;28;20044;-62
2023/10/12 04:27:57;;;;;;;1.42;1.25;;;18.60;85.50;;;;;;5060004;28;20484;-62
2023/10/12 04:30:42;;;;;;;5.60;1.50;;;18.60;85.00;;;;;;5064655;28;20106;-62
2023/10/12 04:35:53;;;;;;;3.78;1.52;;;18.60;85.10;;;;;;5066381;28;20024;-64
2023/10/12 04:44:06;;;;;;;3.00;2.00;;;18.60;85.30;;;;;;5005112;28;20065;-62
2023/10/12 04:46:47;;;;;;;3.50;1.95;;;18.50;85.30;;;;;;5006517;28;20099;-62
2023/10/12 04:51:41;;;;;;;2.55;1.20;;;18.60;85.20;;;;;;5063781;28;20483;-62
2023/10/12 04:59:43;;;;;;;2.97;1.55;;;18.60;85.20;;;;;;5065762;28;20529;-64
2023/10/12 05:05:14;;;;;;;2.78;1.88;;;18.60;85.20;;;;;;5065016;28;20044;-62
2023/10/12 05:09:53;;;;;;;2.63;1.85;;;18.60;85.30;;;;;;5060491;28;20404;-62
2023/10/12 05:12:23;;;;;;;5.88;2.35;;;18.60;85.30;;;;;;5052621;28;20033;-62
2023/10/12 05:14:55;;;;;;;2.47;1.60;;;18.70;85.30;;;;;;5066908;28;20033;-62
2023/10/12 05:17:22;;;;;;;2.22;1.77;;;18.70;85.20;;;;;;5065853;28;20028;-64
2023/10/12 05:19:47;;;;;;;2.72;1.38;;;18.60;85.10;;;;;;5066968;28;20034;-64
2023/10/12 05:22:13;;;;;;;3.20;2.40;;;18.70;85.20;;;;;;5060461;28;20033;-64
2023/10/12 05:24:39;;;;;;;2.83;1.65;;;18.70;85.20;;;;;;5067776;28;20403;-64
2023/10/12 05:27:19;;;;;;;3.63;1.83;;;18.70;85.20;;;;;;5068362;28;20592;-64
2023/10/12 05:29:51;;;;;;;3.42;2.15;;;18.70;85.20;;;;;;5061595;28;20028;-64
2023/10/12 05:39:47;;;;;;;5.57;2.10;;;18.50;85.40;;;;;;5056105;28;20093;-62
2023/10/12 05:42:16;;;;;;;3.65;1.90;;;18.50;85.50;;;;;;5066438;28;20029;-64
2023/10/12 05:44:45;;;;;;;5.53;2.63;;;18.60;85.50;;;;;;5063895;28;20028;-64
2023/10/12 05:47:13;;;;;;;4.88;1.75;;;18.60;85.50;;;;;;5060877;28;20028;-64
2023/10/12 05:49:42;;;;;;;2.22;1.92;;;18.60;85.40;;;;;;5066552;28;20120;-64
2023/10/12 05:52:09;;;;;;;3.17;1.85;;;18.60;85.50;;;;;;5069829;28;20024;-64
2023/10/12 05:54:38;;;;;;;7.40;1.77;;;18.60;85.40;;;;;;5065427;28;20078;-64
2023/10/12 05:57:21;;;;;;;2.67;1.55;;;18.60;85.40;;;;;;5066974;28;20045;-64
2023/10/12 05:59:47;;;;;;;1.90;1.48;;;18.60;85.30;;;;;;5062896;28;20048;-64
2023/10/12 06:02:17;;;;;;;2.97;1.83;;;18.60;85.30;;;;;;5066161;28;20444;-64
2023/10/12 06:04:43;;;;;;;1.08;0.82;;;18.50;85.20;;;;;;5062893;28;20031;-64
2023/10/12 06:07:09;;;;;;;0.38;0.35;;;18.50;84.90;;;;;;5066047;28;20043;-64
2023/10/12 06:09:37;;;;;;;0.50;0.30;;;18.30;84.50;;;;;;5063901;28;20031;-64
2023/10/12 06:12:07;;;;;;;0.20;0.20;;;18.10;84.30;;;;;;5069437;28;20028;-64
2023/10/12 06:14:38;;;;;;;0.30;0.30;;;17.90;84.20;;;;;;5060170;28;20025;-64
2023/10/12 06:17:27;;;;;;;1.35;0.50;;;17.80;84.30;;;;;;5058266;28;20472;-64
2023/10/12 06:19:55;;;;;;;0.20;0.20;;;17.70;84.20;;;;;;5063602;28;20032;-64
2023/10/12 06:22:23;;;;;;;0.30;0.30;;;17.60;84.00;;;;;;5065283;28;20032;-65
2023/10/12 06:24:57;;;;;;;1.05;0.65;;;17.40;84.00;;;;;;5067060;28;20107;-64
2023/10/12 06:27:23;;;;;;;0.20;0.20;;;17.40;84.00;;;;;;5065035;28;20027;-64
2023/10/12 06:29:53;;;;;;;0.55;0.55;;;17.30;83.90;;;;;;5048475;28;20136;-64
2023/10/12 06:32:19;;;;;;;0.77;0.35;;;17.30;83.80;;;;;;5060612;28;20032;-65
2023/10/12 06:35:11;;;;;;;0.60;0.43;;;17.20;83.60;;;;;;5061116;28;20127;-64
2023/10/12 06:40:47;;;;;;;0.77;0.60;;;17.20;83.40;;;;;;5007112;28;20041;-61
2023/10/12 06:45:51;;;;;;;0.50;0.50;;;17.00;83.20;;;;;;5067458;28;20036;-64
2023/10/12 06:48:39;;;;;;;1.73;0.50;;;17.00;83.10;;;;;;5059996;28;20107;-64
2023/10/12 06:51:06;;;;;;;2.50;0.88;;;17.00;83.10;;;;;;5058792;28;20503;-65
2023/10/12 06:53:36;;;;;;;0.77;0.73;;;17.00;83.20;;;;;;5067904;28;20033;-63
2023/10/12 06:58:45;;;;;;;0.95;0.85;;;17.00;83.20;;;;;;5061334;28;20569;-64
2023/10/12 07:01:26;;;;;;;0.60;0.50;;;16.90;83.20;;;;;;5064509;28;20032;-64
2023/10/12 07:03:53;;;;;;;1.52;1.02;;;16.90;83.10;;;;;;5066606;28;20055;-65
2023/10/12 07:06:19;;;;;;;2.10;0.88;;;16.90;83.10;;;;;;5052583;28;20036;-65
2023/10/12 07:08:50;;;;;;;0.65;0.40;;;16.90;83.10;;;;;;5064233;28;20031;-65
2023/10/12 07:11:20;;;;;;;1.02;0.93;;;16.90;83.10;;;;;;5049737;28;20071;-65
2023/10/12 07:13:46;;;;;;;0.60;0.60;;;16.90;83.10;;;;;;5067546;28;20029;-64
2023/10/12 07:16:16;;;;;;;0.70;0.70;;;16.90;83.20;;;;;;5067299;28;20098;-64
2023/10/12 07:18:45;;;;;;;0.77;0.73;;;16.90;83.10;;;;;;5065851;28;20036;-64
2023/10/12 07:21:21;;;;;;;1.55;0.75;;;16.90;83.00;;;;;;5067767;28;20033;-65
2023/10/12 07:23:53;;;;;;;1.05;0.93;;;16.90;83.10;;;;;;5064938;28;20036;-62
2023/10/12 07:26:19;;;;;;;;;;;16.90;83.10;;;;;;5066808;28;20353;-63
2023/10/12 07:28:49;;;;;;;0.38;0.30;;;16.90;83.20;;;;;;5065648;28;19916;-63
2023/10/12 07:39:54;;;;;;;1.48;0.95;;;16.90;83.10;;;;;;5071168;28;20040;-63
2023/10/12 07:42:02;;;;;;;0.35;0.35;;;16.90;83.20;;;;;;5065973;28;20036;-65
2023/10/12 07:44:29;;;;;;;0.40;0.32;;;16.90;83.20;;;;;;5070082;28;20036;-66
2023/10/12 07:46:58;;;;;;;0.95;0.73;;;16.90;83.20;;;;;;5072984;28;20028;-66
2023/10/12 07:49:37;;;;;;;1.25;0.73;;;17.00;83.20;;;;;;5055506;28;20407;-65
2023/10/12 07:57:15;;;;;;;1.67;0.40;;;17.00;83.10;;;;;;5061816;28;20045;-64
2023/10/12 07:59:49;;;;;;;1.60;0.50;;;17.00;83.00;;;;;;5066108;28;20029;-64
2023/10/12 08:02:15;;;;;;;0.52;0.52;;;17.00;83.00;;;;;;5063869;28;20028;-66
2023/10/12 08:04:57;;;;;;;0.30;0.30;;;17.00;83.10;;;;;;5066188;28;20065;-66
2023/10/12 08:07:26;;;;;;;0.30;0.30;;;17.00;83.30;;;;;;5052554;28;20044;-66
2023/10/12 08:09:54;;;;;;;0.50;0.30;;;17.00;83.10;;;;;;5061520;28;20036;-66
2023/10/12 08:12:24;;;;;;;0.30;0.30;;;17.10;83.20;;;;;;5065795;28;20024;-66
2023/10/12 08:14:53;;;;;;;0.20;0.20;;;17.10;83.10;;;;;;5050615;28;20066;-63
2023/10/12 08:17:29;;;;;;;0.40;0.40;;;17.10;83.10;;;;;;5067614;28;20047;-63
2023/10/12 08:22:41;;;;;;;0.20;0.20;;;17.10;83.10;;;;;;5033239;28;20041;-63
2023/10/12 08:25:07;;;;;;;0.45;0.32;;;17.10;83.00;;;;;;5072729;28;20072;-62
2023/10/12 08:27:52;;;;;;;0.30;0.30;;;17.00;82.90;;;;;;5071719;28;20113;-62
2023/10/12 08:30:28;;;;;;;0.28;0.28;;;17.10;83.00;;;;;;5071196;28;20032;-63
2023/10/12 08:33:09;;;;;;;0.20;0.20;;;17.00;83.10;;;;;;5069011;28;20419;-63
2023/10/12 08:36:23;;;;;;;0.20;0.20;;;17.00;83.10;;;;;;5070027;28;20036;-63
2023/10/12 08:38:33;;;;;;;0.20;0.20;;;17.00;83.10;;;;;;5069194;28;20033;-66
2023/10/12 08:42:29;;;;;;;0.30;0.30;;;17.10;83.20;;;;;;5069928;28;20020;-66
2023/10/12 08:43:59;;;;;;;0.22;0.20;;;17.10;83.20;;;;;;5033476;28;20036;-66
2023/10/12 08:52:07;;;;;;;0.25;0.25;;;17.10;83.20;;;;;;5068132;28;20610;-63
2023/10/12 08:54:37;;;;;;;0.20;0.20;;;17.10;83.20;;;;;;5066214;28;20021;-66
2023/10/12 08:57:39;;;;;;;1.42;0.38;;;17.00;83.10;;;;;;5070701;28;20072;-66
2023/10/12 09:02:51;;;;;;;0.40;0.40;;;17.00;83.20;;;;;;5069342;28;20032;-66
2023/10/12 09:05:24;;;;;;;4.25;0.60;;;17.00;83.20;;;;;;5067827;28;20123;-67
2023/10/12 09:10:49;;;;;;;0.20;0.20;;;17.00;83.20;;;;;;5066755;28;20079;-66
2023/10/12 09:13:22;;;;;;;0.20;0.20;;;17.00;83.30;;;;;;5056935;28;20039;-67
2023/10/12 09:15:55;;;;;;;0.32;0.32;;;17.00;83.20;;;;;;5068112;28;20021;-66
2023/10/12 09:18:44;;;;;;;0.30;0.30;;;17.00;83.10;;;;;;5049980;28;20039;-66
2023/10/12 09:21:59;;;;;;;1.30;0.40;;;17.00;83.20;;;;;;5066225;28;20393;-67
2023/10/12 09:26:55;;;;;;;0.70;0.38;;;17.00;83.30;;;;;;5066195;28;20553;-63
2023/10/12 09:29:23;;;;;;;0.28;0.28;;;17.00;83.40;;;;;;5043114;28;20032;-63
2023/10/12 09:37:43;;;;;;;0.25;0.20;;;17.10;83.20;;;;;;5066690;28;20474;-63
2023/10/12 09:40:24;;;;;;;0.75;0.30;;;17.10;83.30;;;;;;5069286;28;20020;-63
2023/10/12 09:42:56;;;;;;;0.40;0.40;;;17.10;83.40;;;;;;5065435;28;20033;-63
2023/10/12 09:45:24;;;;;;;0.77;0.40;;;17.10;83.30;;;;;;5069404;28;20475;-66
2023/10/12 09:47:57;;;;;;;0.25;0.22;;;17.10;83.40;;;;;;5053024;28;20475;-66
2023/10/12 09:50:32;;;;;;;0.63;0.30;;;17.10;83.40;;;;;;5067227;28;20391;-63
2023/10/12 09:52:58;;;;;;;1.17;0.30;;;17.10;83.50;;;;;;5065279;28;20051;-63
2023/10/12 09:55:33;;;;;;;16.67;0.57;;;17.10;83.40;;;;;;5066045;28;20486;-63
2023/10/12 09:58:22;;;;;;;0.30;0.30;;;17.20;83.40;;;;;;5068670;28;20024;-63
2023/10/12 10:03:50;;;;;;;0.90;0.88;;;17.20;83.40;;;;;;5037570;28;20450;-63
2023/10/12 10:06:28;;;;;;;0.65;0.40;;;17.20;83.50;;;;;;5044079;28;20036;-63
2023/10/12 10:11:40;;;;;;;0.43;0.43;;;17.20;83.50;;;;;;5067923;28;20503;-63
2023/10/12 10:14:13;;;;;;;0.47;0.40;;;17.20;83.50;;;;;;5060416;28;20021;-63
2023/10/12 10:16:46;;;;;;;;;;;17.20;83.50;;;;;;5061373;28;20032;-63
2023/10/12 10:19:16;;;;;;;0.95;0.30;;;17.20;83.60;;;;;;5058199;28;19920;-63
2023/10/12 10:22:04;;;;;;;0.30;0.30;;;17.10;83.60;;;;;;5058897;28;20498;-63
2023/10/12 10:25:04;;;;;;;0.40;0.40;;;17.20;83.50;;;;;;5057769;28;20028;-63
2023/10/12 10:27:36;;;;;;;1.25;0.65;;;17.20;83.50;;;;;;5059960;28;20556;-66
2023/10/12 10:30:36;;;;;;;;;;;17.10;83.60;;;;;;5057632;28;20025;-66
2023/10/12 10:33:13;;;;;;;1.90;1.20;;;17.10;83.60;;;;;;5034590;28;19920;-66
2023/10/12 10:36:00;;;;;;;0.68;0.43;;;17.10;83.80;;;;;;5059682;28;20027;-66
2023/10/12 10:38:34;;;;;;;0.80;0.50;;;17.20;83.80;;;;;;5058092;28;20040;-63
2023/10/12 10:41:07;;;;;;;1.17;0.50;;;17.20;83.80;;;;;;5057922;28;20048;-63
2023/10/12 10:43:37;;;;;;;1.05;0.77;;;17.20;83.80;;;;;;5041284;28;20066;-63
2023/10/12 10:46:10;;;;;;;0.85;0.80;;;17.30;83.90;;;;;;5062442;28;20399;-63
2023/10/12 10:48:38;;;;;;;0.82;0.73;;;17.30;83.70;;;;;;5057232;28;20096;-63
2023/10/12 10:51:19;;;;;;;0.63;0.60;;;17.30;83.70;;;;;;5061236;28;20146;-63
2023/10/12 10:53:53;;;;;;;0.90;0.60;;;17.30;83.70;;;;;;5057188;28;20032;-63
2023/10/12 10:56:35;;;;;;;0.57;0.50;;;17.40;83.70;;;;;;5056648;28;20049;-63
2023/10/12 10:59:13;;;;;;;0.88;0.63;;;17.40;83.70;;;;;;5059680;28;20483;-66
2023/10/12 11:01:52;;;;;;;1.08;0.98;;;17.40;83.70;;;;;;5043427;28;20029;-66
2023/10/12 11:07:04;;;;;;;1.27;0.70;;;17.40;83.80;;;;;;5060533;28;20043;-66
2023/10/12 11:12:22;;;;;;;1.58;0.73;;;17.50;83.80;;;;;;5053965;28;20040;-66
2023/10/12 11:15:01;;;;;;;1.17;0.88;;;17.50;83.80;;;;;;5033770;28;20027;-66
2023/10/12 11:17:35;;;;;;;1.00;0.70;;;17.50;83.90;;;;;;5064882;28;20028;-63
2023/10/12 11:20:26;;;;;;;2.17;1.05;;;17.50;83.80;;;;;;5057758;28;20426;-63
2023/10/12 11:22:52;;;;;;;0.63;0.60;;;17.60;84.00;;;;;;5052573;28;20701;-63
2023/10/12 11:25:20;;;;;;;0.85;0.85;;;17.60;84.00;;;;;;5059427;28;20097;-63
2023/10/12 11:27:45;;;;;;;1.30;0.93;;;17.60;84.70;;;;;;5061800;28;20082;-67
2023/10/12 11:30:18;;;;;;;0.98;0.75;;;17.60;84.10;;;;;;5042908;28;20430;-63
2023/10/12 11:32:55;;;;;;;0.93;0.80;;;17.60;84.00;;;;;;5041411;28;20031;-63
2023/10/12 11:35:40;;;;;;;1.40;1.30;;;17.60;84.00;;;;;;5056052;28;20240;-63
2023/10/12 11:38:17;;;;;;;1.42;1.00;;;17.70;84.10;;;;;;5063478;28;20507;-63
2023/10/12 11:40:52;;;;;;;1.00;0.90;;;17.70;84.20;;;;;;5062105;28;20051;-63
2023/10/12 11:43:19;;;;;;;1.17;0.90;;;17.70;84.20;;;;;;5059096;28;20028;-63
2023/10/12 11:46:01;;;;;;;0.75;0.70;;;17.70;84.10;;;;;;5060635;28;20492;-63
2023/10/12 11:48:28;;;;;;;0.68;0.65;;;17.80;84.00;;;;;;5056995;28;20149;-63
2023/10/12 11:50:58;;;;;;;1.20;0.68;;;17.80;84.00;;;;;;5051604;28;20020;-63
2023/10/12 11:53:25;;;;;;;2.28;0.98;;;17.80;84.00;;;;;;5056513;28;20104;-63
2023/10/12 11:56:07;;;;;;;0.98;0.90;;;17.80;84.00;;;;;;5044866;28;20049;-63
2023/10/12 11:58:33;;;;;;;0.68;0.68;;;17.90;84.10;;;;;;5064629;28;20052;-63
2023/10/12 12:01:00;;;;;;;1.60;0.90;;;17.80;84.10;;;;;;5061965;28;20028;-63
2023/10/12 12:03:26;;;;;;;0.88;0.50;;;17.80;84.10;;;;;;5065062;28;20028;-64
2023/10/12 12:05:52;;;;;;;0.77;0.75;;;17.90;84.30;;;;;;5067777;28;20325;-63
2023/10/12 12:08:18;;;;;;;2.83;0.65;;;17.80;84.30;;;;;;5063840;28;20103;-63
2023/10/12 12:10:54;;;;;;;1.80;1.27;;;17.90;84.30;;;;;;5066777;28;20402;-63
2023/10/12 12:13:21;;;;;;;4.65;1.00;;;17.90;84.40;;;;;;5044115;28;20056;-62
2023/10/12 12:15:54;;;;;;;1.95;1.10;;;17.80;85.00;;;;;;5064496;28;20070;-63
2023/10/12 12:18:19;;;;;;;1.17;0.90;;;17.90;84.50;;;;;;5063442;28;20024;-63
2023/10/12 12:20:51;;;;;;;1.58;1.15;;;17.80;84.40;;;;;;5070331;28;20380;-63
2023/10/12 12:23:26;;;;;;;1.58;1.13;;;17.80;84.50;;;;;;5069385;28;20028;-63
2023/10/12 12:25:59;;;;;;;1.77;1.25;;;17.80;84.50;;;;;;5052304;28;20190;-63
2023/10/12 12:28:31;;;;;;;1.67;1.20;;;17.90;84.60;;;;;;5068436;28;20028;-63
2023/10/12 12:31:00;;;;;;;2.05;1.15;;;17.80;84.50;;;;;;5053836;28;20029;-66
2023/10/12 12:33:27;;;;;;;1.83;1.38;;;17.80;84.70;;;;;;5068328;28;20028;-67
2023/10/12 12:36:10;;;;;;;1.90;1.10;;;17.90;84.70;;;;;;5070073;28;20527;-66
2023/10/12 12:41:05;;;;;;;1.70;1.27;;;17.90;84.60;;;;;;5067750;28;20037;-66
2023/10/12 12:43:34;;;;;;;1.05;0.70;;;17.90;84.60;;;;;;5069100;28;20024;-66
2023/10/12 12:45:59;;;;;;;6.78;1.38;;;17.90;84.50;;;;;;5068551;28;20058;-66
2023/10/12 12:48:25;;;;;;;0.82;0.82;;;17.90;84.60;;;;;;5069143;28;20032;-66
2023/10/12 12:50:51;;;;;;;1.42;0.88;;;17.90;84.60;;;;;;5069528;28;20036;-66
2023/10/12 12:53:20;;;;;;;1.10;0.93;;;17.90;84.60;;;;;;5062244;28;20509;-66
2023/10/12 12:55:46;;;;;;;2.03;0.98;;;18.00;84.70;;;;;;5053140;28;20040;-66
2023/10/12 12:58:16;;;;;;;1.30;1.10;;;18.00;84.70;;;;;;5069418;28;20035;-63
2023/10/12 13:00:42;;;;;;;2.13;1.70;;;17.90;84.70;;;;;;5068843;28;20060;-63
2023/10/12 13:03:09;;;;;;;2.20;1.42;;;17.90;84.80;;;;;;5062970;28;20036;-63
2023/10/12 13:05:35;;;;;;;1.45;1.10;;;17.90;84.80;;;;;;5064927;28;20028;-63
2023/10/12 13:08:01;;;;;;;1.25;1.15;;;18.00;84.90;;;;;;5048983;28;20051;-63
2023/10/12 13:10:26;;;;;;;3.97;2.00;;;18.00;84.90;;;;;;5064152;28;20028;-63
2023/10/12 13:12:53;;;;;;;2.45;1.42;;;18.00;85.50;;;;;;5064892;28;20577;-63
2023/10/12 13:15:19;;;;;;;2.63;1.55;;;18.00;84.90;;;;;;5047176;28;20402;-63
2023/10/12 13:17:45;;;;;;;1.60;1.40;;;18.00;84.90;;;;;;5067555;28;20048;-63
2023/10/12 13:20:22;;;;;;;1.00;0.88;;;18.00;85.00;;;;;;5065915;28;20092;-66
2023/10/12 13:22:49;;;;;;;1.35;1.25;;;18.00;85.00;;;;;;5051764;28;20079;-66
2023/10/12 13:25:17;;;;;;;1.77;1.10;;;18.00;85.00;;;;;;5068207;28;20064;-66
2023/10/12 13:27:44;;;;;;;2.22;1.35;;;18.00;85.00;;;;;;5063480;28;20029;-66
2023/10/12 13:30:11;;;;;;;1.75;1.40;;;18.00;85.10;;;;;;5061458;28;20801;-63
2023/10/12 13:32:37;;;;;;;1.50;1.35;;;18.00;85.20;;;;;;5062451;28;20406;-62
2023/10/12 13:35:18;;;;;;;2.10;1.02;;;18.00;85.30;;;;;;5065630;28;20024;-63
2023/10/12 13:37:51;;;;;;;2.30;1.35;;;18.00;85.30;;;;;;5060967;28;20037;-63
2023/10/12 13:40:17;;;;;;;1.50;1.15;;;18.00;85.30;;;;;;5047023;28;20445;-63
2023/10/12 13:42:43;;;;;;;2.40;1.52;;;18.00;85.40;;;;;;5065901;28;20033;-62
2023/10/12 13:45:13;;;;;;;3.72;1.90;;;18.00;85.40;;;;;;5066728;28;20183;-63
2023/10/12 13:47:42;;;;;;;3.80;1.55;;;18.00;85.40;;;;;;5066955;28;20880;-63
2023/10/12 13:50:11;;;;;;;1.75;1.40;;;18.00;85.40;;;;;;5065057;28;20055;-63
2023/10/12 13:52:41;;;;;;;1.77;1.45;;;18.00;85.40;;;;;;5045362;28;20024;-63
2023/10/12 13:55:11;;;;;;;1.85;1.38;;;18.00;85.50;;;;;;5062012;28;20024;-62
2023/10/12 13:57:55;;;;;;;2.75;1.63;;;18.00;85.50;;;;;;5067381;28;20491;-62
2023/10/12 14:00:30;;;;;;;3.20;1.95;;;18.00;85.60;;;;;;5063356;28;20037;-62
2023/10/12 14:02:59;;;;;;;4.82;2.13;;;18.00;85.70;;;;;;5065084;28;20616;-66
2023/10/12 14:05:27;;;;;;;2.45;1.98;;;18.00;85.80;;;;;;5051183;28;20024;-66
2023/10/12 14:07:59;;;;;;;3.45;1.52;;;18.00;86.10;;;;;;5063802;28;20036;-63
2023/10/12 14:10:29;;;;;;;2.50;1.63;;;18.00;86.30;;;;;;5061507;28;20531;-63
2023/10/12 14:12:56;;;;;;;2.75;2.15;;;18.00;86.30;;;;;;5068646;28;20033;-63
2023/10/12 14:15:27;;;;;;;2.50;1.88;;;18.00;86.30;;;;;;5065830;28;20027;-63
2023/10/12 14:17:56;;;;;;;2.08;1.65;;;18.00;86.30;;;;;;5065747;28;20124;-62
2023/10/12 14:20:28;;;;;;;3.05;1.83;;;18.00;86.30;;;;;;5067289;28;20094;-63
2023/10/12 14:23:05;;;;;;;;;;;18.00;86.30;;;;;;5066342;28;20036;-66
2023/10/12 14:25:38;;;;;;;5.95;2.22;;;18.00;86.50;;;;;;5066875;28;19912;-62
2023/10/12 14:28:05;;;;;;;5.57;3.30;;;18.00;87.00;;;;;;5065507;28;20094;-63
2023/10/12 14:30:33;;;;;;;5.20;3.30;;;18.00;87.00;;;;;;5062629;28;20484;-63
2023/10/12 14:33:03;;;;;;;3.90;2.60;;;18.00;86.90;;;;;;5063596;28;20090;-63
2023/10/12 14:35:40;;;;;;;5.05;3.08;;;18.00;86.90;;;;;;5061143;28;20028;-63
2023/10/12 14:38:08;;;;;;;3.13;2.03;;;18.00;86.90;;;;;;5068272;28;20376;-63
2023/10/12 14:40:35;;;;;;;6.05;4.25;;;18.00;86.90;;;;;;5059856;28;20111;-63
2023/10/12 14:43:06;;;;;;;2.97;2.10;;;18.00;86.80;;;;;;5060584;28;20103;-63
2023/10/12 14:45:48;;;;;;;6.93;3.97;;;18.00;86.80;;;;;;5068799;28;20032;-63
2023/10/12 14:48:16;;;;;;;;;;;18.00;86.80;;;;;;5067565;28;20033;-63
2023/10/12 14:50:50;;;;;;;4.47;3.03;;;18.00;87.10;;;;;;5059951;28;19912;-63
2023/10/12 14:53:16;;;;;;;4.40;2.75;;;18.00;87.00;;;;;;5061346;28;20121;-63
2023/10/12 14:55:43;;;;;;;3.58;2.35;;;18.00;87.20;;;;;;5057910;28;20028;-63
2023/10/12 14:58:09;;;;;;;3.80;2.70;;;18.00;87.20;;;;;;5063953;28;20043;-63
2023/10/12 15:00:36;;;;;;;3.00;1.90;;;18.00;87.20;;;;;;5066738;28;20032;-63
2023/10/12 15:03:02;;;;;;;5.47;2.97;;;18.10;87.20;;;;;;5067549;28;20391;-63
2023/10/12 15:05:30;;;;;;;3.33;1.95;;;18.10;87.10;;;;;;5061077;28;20025;-63
2023/10/12 15:07:56;;;;;;;5.45;2.97;;;18.20;87.20;;;;;;5067761;28;20041;-63